sensor_id;sensor_type;location;lat;lon;timestamp;P1;durP1;ratioP1;P2;durP2;ratioP2
2105;SDS011;1059;52.548;13.408;2022-09-24T00:01:20;8.20;;;7.50;;
2105;SDS011;1059;52.548;13.408;2022-09-24T00:03:49;8.23;;;7.43;;
2105;SDS011;1059;52.548;13.408;2022-09-24T00:06:17;9.33;;;7.70;;
2105;SDS011;1059;52.548;13.408;2022-09-24T00:08:44;8.70;;;7.33;;
2105;SDS011;1059;52.548;13.408;2022-09-24T00:11:14;7.50;;;6.90;;
2105;SDS011;1059;52.548;13.408;2022-09-24T00:13:42;11.00;;;6.97;;
2105;SDS011;1059;52.548;13.408;2022-09-24T00:16:10;7.77;;;6.10;;
2105;SDS011;1059;52.548;13.408;2022-09-24T00:18:39;8.80;;;7.60;;
2105;SDS011;1059;52.548;13.408;2022-09-24T00:21:13;7.53;;;6.83;;
2105;SDS011;1059;52.548;13.408;2022-09-24T00:23:41;7.47;;;6.50;;
2105;SDS011;1059;52.548;13.408;2022-09-24T00:26:09;10.63;;;7.70;;
2105;SDS011;1059;52.548;13.408;2022-09-24T00:28:55;7.90;;;7.10;;
2105;SDS011;1059;52.548;13.408;2022-09-24T00:31:22;7.50;;;6.80;;
2105;SDS011;1059;52.548;13.408;2022-09-24T00:33:49;8.80;;;6.53;;
2105;SDS011;1059;52.548;13.408;2022-09-24T00:36:17;8.43;;;7.20;;
2105;SDS011;1059;52.548;13.408;2022-09-24T00:38:47;8.80;;;7.30;;
2105;SDS011;1059;52.548;13.408;2022-09-24T00:41:14;8.27;;;7.47;;
2105;SDS011;1059;52.548;13.408;2022-09-24T00:43:43;10.43;;;7.70;;
2105;SDS011;1059;52.548;13.408;2022-09-24T00:46:13;7.47;;;6.70;;
2105;SDS011;1059;52.548;13.408;2022-09-24T00:48:46;8.20;;;6.70;;
2105;SDS011;1059;52.548;13.408;2022-09-24T00:51:15;7.80;;;7.10;;
2105;SDS011;1059;52.548;13.408;2022-09-24T00:53:44;8.37;;;7.53;;
2105;SDS011;1059;52.548;13.408;2022-09-24T00:56:14;8.60;;;7.70;;
2105;SDS011;1059;52.548;13.408;2022-09-24T00:58:43;8.10;;;7.30;;
2105;SDS011;1059;52.548;13.408;2022-09-24T01:01:17;8.30;;;7.50;;
2105;SDS011;1059;52.548;13.408;2022-09-24T01:03:45;11.03;;;8.13;;
2105;SDS011;1059;52.548;13.408;2022-09-24T01:06:13;8.83;;;7.70;;
2105;SDS011;1059;52.548;13.408;2022-09-24T01:08:40;9.00;;;7.50;;
2105;SDS011;1059;52.548;13.408;2022-09-24T01:11:14;8.60;;;7.77;;
2105;SDS011;1059;52.548;13.408;2022-09-24T01:13:59;8.30;;;7.50;;
2105;SDS011;1059;52.548;13.408;2022-09-24T01:16:43;7.80;;;7.10;;
2105;SDS011;1059;52.548;13.408;2022-09-24T01:19:20;8.60;;;7.40;;
2105;SDS011;1059;52.548;13.408;2022-09-24T01:22:11;8.00;;;7.17;;
2105;SDS011;1059;52.548;13.408;2022-09-24T01:24:50;8.37;;;7.57;;
2105;SDS011;1059;52.548;13.408;2022-09-24T01:27:28;8.10;;;7.30;;
2105;SDS011;1059;52.548;13.408;2022-09-24T01:30:09;8.50;;;7.60;;
2105;SDS011;1059;52.548;13.408;2022-09-24T01:32:38;9.10;;;8.20;;
2105;SDS011;1059;52.548;13.408;2022-09-24T01:35:09;8.80;;;7.90;;
2105;SDS011;1059;52.548;13.408;2022-09-24T01:37:43;8.47;;;7.77;;
2105;SDS011;1059;52.548;13.408;2022-09-24T01:40:13;8.20;;;7.37;;
2105;SDS011;1059;52.548;13.408;2022-09-24T01:42:42;9.40;;;8.20;;
2105;SDS011;1059;52.548;13.408;2022-09-24T01:45:12;9.53;;;7.40;;
2105;SDS011;1059;52.548;13.408;2022-09-24T01:47:41;7.87;;;7.17;;
2105;SDS011;1059;52.548;13.408;2022-09-24T01:50:10;8.70;;;7.90;;
2105;SDS011;1059;52.548;13.408;2022-09-24T01:52:41;8.30;;;7.60;;
2105;SDS011;1059;52.548;13.408;2022-09-24T01:55:14;10.10;;;7.73;;
2105;SDS011;1059;52.548;13.408;2022-09-24T01:57:45;7.83;;;7.13;;
2105;SDS011;1059;52.548;13.408;2022-09-24T02:00:18;9.57;;;7.80;;
2105;SDS011;1059;52.548;13.408;2022-09-24T02:02:47;9.90;;;7.70;;
2105;SDS011;1059;52.548;13.408;2022-09-24T02:05:23;8.70;;;7.87;;
2105;SDS011;1059;52.548;13.408;2022-09-24T02:07:57;8.13;;;7.43;;
2105;SDS011;1059;52.548;13.408;2022-09-24T02:10:31;8.20;;;7.47;;
2105;SDS011;1059;52.548;13.408;2022-09-24T02:13:04;8.13;;;7.33;;
2105;SDS011;1059;52.548;13.408;2022-09-24T02:15:40;8.57;;;7.67;;
2105;SDS011;1059;52.548;13.408;2022-09-24T02:18:10;11.87;;;7.60;;
2105;SDS011;1059;52.548;13.408;2022-09-24T02:20:42;8.57;;;7.80;;
2105;SDS011;1059;52.548;13.408;2022-09-24T02:23:09;8.90;;;8.00;;
2105;SDS011;1059;52.548;13.408;2022-09-24T02:25:40;8.00;;;7.27;;
2105;SDS011;1059;52.548;13.408;2022-09-24T02:28:10;8.30;;;7.50;;
2105;SDS011;1059;52.548;13.408;2022-09-24T02:30:40;10.40;;;8.30;;
2105;SDS011;1059;52.548;13.408;2022-09-24T02:33:11;7.87;;;7.10;;
2105;SDS011;1059;52.548;13.408;2022-09-24T02:35:58;8.60;;;7.70;;
2105;SDS011;1059;52.548;13.408;2022-09-24T02:38:25;8.00;;;7.33;;
2105;SDS011;1059;52.548;13.408;2022-09-24T02:40:52;8.97;;;8.00;;
2105;SDS011;1059;52.548;13.408;2022-09-24T02:43:19;8.37;;;7.50;;
2105;SDS011;1059;52.548;13.408;2022-09-24T02:45:48;8.57;;;7.70;;
2105;SDS011;1059;52.548;13.408;2022-09-24T02:48:14;7.70;;;7.10;;
2105;SDS011;1059;52.548;13.408;2022-09-24T02:50:41;8.10;;;7.30;;
2105;SDS011;1059;52.548;13.408;2022-09-24T02:53:08;7.97;;;7.17;;
2105;SDS011;1059;52.548;13.408;2022-09-24T02:55:35;10.43;;;7.27;;
2105;SDS011;1059;52.548;13.408;2022-09-24T02:58:02;8.43;;;7.73;;
2105;SDS011;1059;52.548;13.408;2022-09-24T03:00:29;8.80;;;8.00;;
2105;SDS011;1059;52.548;13.408;2022-09-24T03:02:57;8.53;;;7.63;;
2105;SDS011;1059;52.548;13.408;2022-09-24T03:05:24;8.63;;;7.80;;
2105;SDS011;1059;52.548;13.408;2022-09-24T03:07:50;8.37;;;7.47;;
2105;SDS011;1059;52.548;13.408;2022-09-24T03:10:23;8.07;;;7.27;;
2105;SDS011;1059;52.548;13.408;2022-09-24T03:12:50;8.23;;;7.43;;
2105;SDS011;1059;52.548;13.408;2022-09-24T03:15:17;8.33;;;7.57;;
2105;SDS011;1059;52.548;13.408;2022-09-24T03:17:44;7.90;;;7.20;;
2105;SDS011;1059;52.548;13.408;2022-09-24T03:20:12;7.53;;;6.83;;
2105;SDS011;1059;52.548;13.408;2022-09-24T03:22:39;9.40;;;8.50;;
2105;SDS011;1059;52.548;13.408;2022-09-24T03:25:07;9.80;;;8.30;;
2105;SDS011;1059;52.548;13.408;2022-09-24T03:27:35;8.47;;;7.67;;
2105;SDS011;1059;52.548;13.408;2022-09-24T03:30:02;8.83;;;7.90;;
2105;SDS011;1059;52.548;13.408;2022-09-24T03:32:46;8.60;;;7.80;;
2105;SDS011;1059;52.548;13.408;2022-09-24T03:35:15;8.67;;;7.87;;
2105;SDS011;1059;52.548;13.408;2022-09-24T03:37:42;8.90;;;8.10;;
2105;SDS011;1059;52.548;13.408;2022-09-24T03:40:09;9.13;;;8.23;;
2105;SDS011;1059;52.548;13.408;2022-09-24T03:42:36;9.33;;;8.40;;
2105;SDS011;1059;52.548;13.408;2022-09-24T03:45:03;10.03;;;8.17;;
2105;SDS011;1059;52.548;13.408;2022-09-24T03:47:31;8.63;;;7.83;;
2105;SDS011;1059;52.548;13.408;2022-09-24T03:49:58;9.20;;;8.30;;
2105;SDS011;1059;52.548;13.408;2022-09-24T03:52:26;9.27;;;8.27;;
2105;SDS011;1059;52.548;13.408;2022-09-24T03:54:53;8.50;;;7.70;;
2105;SDS011;1059;52.548;13.408;2022-09-24T03:57:20;9.03;;;7.83;;
2105;SDS011;1059;52.548;13.408;2022-09-24T03:59:47;9.17;;;7.73;;
2105;SDS011;1059;52.548;13.408;2022-09-24T04:02:16;8.60;;;7.60;;
2105;SDS011;1059;52.548;13.408;2022-09-24T04:04:44;8.80;;;7.90;;
2105;SDS011;1059;52.548;13.408;2022-09-24T04:07:10;8.90;;;8.10;;
2105;SDS011;1059;52.548;13.408;2022-09-24T04:09:39;9.00;;;8.10;;
2105;SDS011;1059;52.548;13.408;2022-09-24T04:12:06;8.57;;;7.77;;
2105;SDS011;1059;52.548;13.408;2022-09-24T04:14:33;8.83;;;8.03;;
2105;SDS011;1059;52.548;13.408;2022-09-24T04:17:00;8.93;;;7.90;;
2105;SDS011;1059;52.548;13.408;2022-09-24T04:19:27;9.63;;;8.63;;
2105;SDS011;1059;52.548;13.408;2022-09-24T04:21:56;9.37;;;8.47;;
2105;SDS011;1059;52.548;13.408;2022-09-24T04:24:22;8.87;;;8.07;;
2105;SDS011;1059;52.548;13.408;2022-09-24T04:26:51;9.47;;;8.47;;
2105;SDS011;1059;52.548;13.408;2022-09-24T04:29:18;8.87;;;7.97;;
2105;SDS011;1059;52.548;13.408;2022-09-24T04:31:44;8.60;;;7.90;;
2105;SDS011;1059;52.548;13.408;2022-09-24T04:34:11;8.67;;;7.83;;
2105;SDS011;1059;52.548;13.408;2022-09-24T04:36:38;9.93;;;7.77;;
2105;SDS011;1059;52.548;13.408;2022-09-24T04:39:05;11.80;;;8.23;;
2105;SDS011;1059;52.548;13.408;2022-09-24T04:41:32;10.17;;;8.97;;
2105;SDS011;1059;52.548;13.408;2022-09-24T04:44:00;8.90;;;8.10;;
2105;SDS011;1059;52.548;13.408;2022-09-24T04:46:27;13.53;;;7.57;;
2105;SDS011;1059;52.548;13.408;2022-09-24T04:48:57;12.30;;;8.57;;
2105;SDS011;1059;52.548;13.408;2022-09-24T04:51:24;8.60;;;7.80;;
2105;SDS011;1059;52.548;13.408;2022-09-24T04:53:51;9.00;;;8.30;;
2105;SDS011;1059;52.548;13.408;2022-09-24T04:56:18;9.80;;;7.90;;
2105;SDS011;1059;52.548;13.408;2022-09-24T04:58:48;9.87;;;8.50;;
2105;SDS011;1059;52.548;13.408;2022-09-24T05:01:17;9.10;;;8.27;;
2105;SDS011;1059;52.548;13.408;2022-09-24T05:03:44;9.13;;;8.33;;
2105;SDS011;1059;52.548;13.408;2022-09-24T05:06:11;9.30;;;8.40;;
2105;SDS011;1059;52.548;13.408;2022-09-24T05:08:38;8.20;;;7.47;;
2105;SDS011;1059;52.548;13.408;2022-09-24T05:11:05;8.50;;;7.70;;
2105;SDS011;1059;52.548;13.408;2022-09-24T05:13:32;8.93;;;8.03;;
2105;SDS011;1059;52.548;13.408;2022-09-24T05:15:59;9.17;;;7.60;;
2105;SDS011;1059;52.548;13.408;2022-09-24T05:18:27;8.20;;;7.30;;
2105;SDS011;1059;52.548;13.408;2022-09-24T05:20:54;8.60;;;7.70;;
2105;SDS011;1059;52.548;13.408;2022-09-24T05:23:21;11.93;;;8.07;;
2105;SDS011;1059;52.548;13.408;2022-09-24T05:25:48;10.30;;;7.80;;
2105;SDS011;1059;52.548;13.408;2022-09-24T05:28:32;8.13;;;7.33;;
2105;SDS011;1059;52.548;13.408;2022-09-24T05:30:59;8.80;;;8.00;;
2105;SDS011;1059;52.548;13.408;2022-09-24T05:33:27;9.00;;;8.10;;
2105;SDS011;1059;52.548;13.408;2022-09-24T05:35:54;8.30;;;7.60;;
2105;SDS011;1059;52.548;13.408;2022-09-24T05:38:22;7.87;;;7.10;;
2105;SDS011;1059;52.548;13.408;2022-09-24T05:40:49;9.63;;;8.60;;
2105;SDS011;1059;52.548;13.408;2022-09-24T05:43:16;9.10;;;8.30;;
2105;SDS011;1059;52.548;13.408;2022-09-24T05:45:44;9.23;;;8.40;;
2105;SDS011;1059;52.548;13.408;2022-09-24T05:48:11;8.50;;;7.80;;
2105;SDS011;1059;52.548;13.408;2022-09-24T05:50:39;9.83;;;8.80;;
2105;SDS011;1059;52.548;13.408;2022-09-24T05:53:07;8.83;;;8.03;;
2105;SDS011;1059;52.548;13.408;2022-09-24T05:55:34;11.47;;;8.53;;
2105;SDS011;1059;52.548;13.408;2022-09-24T05:58:01;10.97;;;8.53;;
2105;SDS011;1059;52.548;13.408;2022-09-24T06:00:29;14.50;;;12.30;;
2105;SDS011;1059;52.548;13.408;2022-09-24T06:03:00;9.90;;;8.90;;
2105;SDS011;1059;52.548;13.408;2022-09-24T06:05:29;10.37;;;7.93;;
2105;SDS011;1059;52.548;13.408;2022-09-24T06:07:59;10.03;;;8.00;;
2105;SDS011;1059;52.548;13.408;2022-09-24T06:10:26;11.27;;;8.13;;
2105;SDS011;1059;52.548;13.408;2022-09-24T06:12:53;9.47;;;8.47;;
2105;SDS011;1059;52.548;13.408;2022-09-24T06:15:20;8.97;;;8.17;;
2105;SDS011;1059;52.548;13.408;2022-09-24T06:17:48;8.70;;;7.90;;
2105;SDS011;1059;52.548;13.408;2022-09-24T06:20:18;9.27;;;8.47;;
2105;SDS011;1059;52.548;13.408;2022-09-24T06:22:45;9.27;;;8.37;;
2105;SDS011;1059;52.548;13.408;2022-09-24T06:25:14;9.00;;;8.20;;
2105;SDS011;1059;52.548;13.408;2022-09-24T06:27:41;8.47;;;7.70;;
2105;SDS011;1059;52.548;13.408;2022-09-24T06:30:08;8.50;;;7.70;;
2105;SDS011;1059;52.548;13.408;2022-09-24T06:32:35;9.53;;;8.10;;
2105;SDS011;1059;52.548;13.408;2022-09-24T06:35:02;8.50;;;7.70;;
2105;SDS011;1059;52.548;13.408;2022-09-24T06:37:30;8.10;;;7.40;;
2105;SDS011;1059;52.548;13.408;2022-09-24T06:39:58;9.43;;;8.53;;
2105;SDS011;1059;52.548;13.408;2022-09-24T06:42:26;9.37;;;8.30;;
2105;SDS011;1059;52.548;13.408;2022-09-24T06:44:52;10.03;;;8.67;;
2105;SDS011;1059;52.548;13.408;2022-09-24T06:47:19;11.20;;;10.07;;
2105;SDS011;1059;52.548;13.408;2022-09-24T06:49:48;10.27;;;9.23;;
2105;SDS011;1059;52.548;13.408;2022-09-24T06:52:15;11.70;;;8.10;;
2105;SDS011;1059;52.548;13.408;2022-09-24T06:54:41;9.73;;;8.90;;
2105;SDS011;1059;52.548;13.408;2022-09-24T06:57:08;10.20;;;9.30;;
2105;SDS011;1059;52.548;13.408;2022-09-24T06:59:36;9.33;;;8.53;;
2105;SDS011;1059;52.548;13.408;2022-09-24T07:02:03;9.93;;;8.90;;
2105;SDS011;1059;52.548;13.408;2022-09-24T07:04:30;10.30;;;9.20;;
2105;SDS011;1059;52.548;13.408;2022-09-24T07:06:57;10.33;;;9.23;;
2105;SDS011;1059;52.548;13.408;2022-09-24T07:09:41;10.70;;;9.63;;
2105;SDS011;1059;52.548;13.408;2022-09-24T07:12:08;11.13;;;9.13;;
2105;SDS011;1059;52.548;13.408;2022-09-24T07:14:36;10.20;;;9.30;;
2105;SDS011;1059;52.548;13.408;2022-09-24T07:17:03;11.00;;;8.43;;
2105;SDS011;1059;52.548;13.408;2022-09-24T07:19:30;10.63;;;9.20;;
2105;SDS011;1059;52.548;13.408;2022-09-24T07:21:57;11.13;;;8.70;;
2105;SDS011;1059;52.548;13.408;2022-09-24T07:24:23;9.07;;;8.23;;
2105;SDS011;1059;52.548;13.408;2022-09-24T07:26:50;11.13;;;8.83;;
2105;SDS011;1059;52.548;13.408;2022-09-24T07:29:18;9.20;;;8.40;;
2105;SDS011;1059;52.548;13.408;2022-09-24T07:31:46;10.80;;;9.80;;
2105;SDS011;1059;52.548;13.408;2022-09-24T07:34:13;9.90;;;8.90;;
2105;SDS011;1059;52.548;13.408;2022-09-24T07:36:41;9.80;;;8.13;;
2105;SDS011;1059;52.548;13.408;2022-09-24T07:39:08;8.77;;;7.90;;
2105;SDS011;1059;52.548;13.408;2022-09-24T07:41:35;10.47;;;8.47;;
2105;SDS011;1059;52.548;13.408;2022-09-24T07:44:03;8.80;;;7.90;;
2105;SDS011;1059;52.548;13.408;2022-09-24T07:46:30;10.20;;;9.27;;
2105;SDS011;1059;52.548;13.408;2022-09-24T07:48:58;8.53;;;7.63;;
2105;SDS011;1059;52.548;13.408;2022-09-24T07:51:25;12.00;;;10.50;;
2105;SDS011;1059;52.548;13.408;2022-09-24T07:53:52;9.30;;;8.50;;
2105;SDS011;1059;52.548;13.408;2022-09-24T07:56:20;10.60;;;9.50;;
2105;SDS011;1059;52.548;13.408;2022-09-24T07:58:48;11.10;;;9.97;;
2105;SDS011;1059;52.548;13.408;2022-09-24T08:01:15;9.70;;;8.77;;
2105;SDS011;1059;52.548;13.408;2022-09-24T08:03:42;9.70;;;8.90;;
2105;SDS011;1059;52.548;13.408;2022-09-24T08:06:10;11.50;;;10.30;;
2105;SDS011;1059;52.548;13.408;2022-09-24T08:08:37;20.17;;;18.10;;
2105;SDS011;1059;52.548;13.408;2022-09-24T08:11:04;14.07;;;12.03;;
2105;SDS011;1059;52.548;13.408;2022-09-24T08:13:32;14.20;;;12.80;;
2105;SDS011;1059;52.548;13.408;2022-09-24T08:16:00;11.70;;;9.87;;
2105;SDS011;1059;52.548;13.408;2022-09-24T08:18:28;12.97;;;11.67;;
2105;SDS011;1059;52.548;13.408;2022-09-24T08:20:55;17.83;;;14.27;;
2105;SDS011;1059;52.548;13.408;2022-09-24T08:23:25;17.87;;;14.60;;
2105;SDS011;1059;52.548;13.408;2022-09-24T08:25:52;17.33;;;15.50;;
2105;SDS011;1059;52.548;13.408;2022-09-24T08:28:19;14.40;;;13.10;;
2105;SDS011;1059;52.548;13.408;2022-09-24T08:30:46;12.00;;;10.80;;
2105;SDS011;1059;52.548;13.408;2022-09-24T08:33:13;12.60;;;11.13;;
2105;SDS011;1059;52.548;13.408;2022-09-24T08:35:40;9.90;;;8.90;;
2105;SDS011;1059;52.548;13.408;2022-09-24T08:38:07;10.33;;;9.20;;
2105;SDS011;1059;52.548;13.408;2022-09-24T08:40:36;11.40;;;8.70;;
2105;SDS011;1059;52.548;13.408;2022-09-24T08:43:09;10.77;;;9.67;;
2105;SDS011;1059;52.548;13.408;2022-09-24T08:45:46;9.57;;;8.57;;
2105;SDS011;1059;52.548;13.408;2022-09-24T08:48:36;9.07;;;8.20;;
2105;SDS011;1059;52.548;13.408;2022-09-24T08:51:07;10.67;;;8.00;;
2105;SDS011;1059;52.548;13.408;2022-09-24T08:53:41;9.20;;;8.40;;
2105;SDS011;1059;52.548;13.408;2022-09-24T08:56:17;9.30;;;8.40;;
2105;SDS011;1059;52.548;13.408;2022-09-24T08:58:49;9.57;;;8.67;;
2105;SDS011;1059;52.548;13.408;2022-09-24T09:01:22;9.67;;;8.67;;
2105;SDS011;1059;52.548;13.408;2022-09-24T09:03:57;10.00;;;9.00;;
2105;SDS011;1059;52.548;13.408;2022-09-24T09:06:42;8.77;;;7.97;;
2105;SDS011;1059;52.548;13.408;2022-09-24T09:09:20;9.17;;;8.27;;
2105;SDS011;1059;52.548;13.408;2022-09-24T09:11:51;10.03;;;9.03;;
2105;SDS011;1059;52.548;13.408;2022-09-24T09:14:24;10.10;;;8.77;;
2105;SDS011;1059;52.548;13.408;2022-09-24T09:17:00;9.57;;;8.60;;
2105;SDS011;1059;52.548;13.408;2022-09-24T09:19:32;10.10;;;8.93;;
2105;SDS011;1059;52.548;13.408;2022-09-24T09:22:00;9.50;;;8.60;;
2105;SDS011;1059;52.548;13.408;2022-09-24T09:24:34;8.30;;;7.60;;
2105;SDS011;1059;52.548;13.408;2022-09-24T09:27:10;9.53;;;8.60;;
2105;SDS011;1059;52.548;13.408;2022-09-24T09:29:39;8.23;;;7.50;;
2105;SDS011;1059;52.548;13.408;2022-09-24T09:32:09;9.40;;;8.20;;
2105;SDS011;1059;52.548;13.408;2022-09-24T09:34:49;8.23;;;7.50;;
2105;SDS011;1059;52.548;13.408;2022-09-24T09:37:26;8.53;;;7.73;;
2105;SDS011;1059;52.548;13.408;2022-09-24T09:40:01;8.93;;;8.03;;
2105;SDS011;1059;52.548;13.408;2022-09-24T09:42:36;9.23;;;8.40;;
2105;SDS011;1059;52.548;13.408;2022-09-24T09:45:11;8.03;;;7.33;;
2105;SDS011;1059;52.548;13.408;2022-09-24T09:47:45;7.53;;;6.93;;
2105;SDS011;1059;52.548;13.408;2022-09-24T09:50:18;10.43;;;7.93;;
2105;SDS011;1059;52.548;13.408;2022-09-24T09:52:52;9.73;;;7.77;;
2105;SDS011;1059;52.548;13.408;2022-09-24T09:55:21;9.73;;;8.83;;
2105;SDS011;1059;52.548;13.408;2022-09-24T09:57:50;7.70;;;7.10;;
2105;SDS011;1059;52.548;13.408;2022-09-24T10:00:24;10.53;;;7.33;;
2105;SDS011;1059;52.548;13.408;2022-09-24T10:02:53;8.23;;;7.53;;
2105;SDS011;1059;52.548;13.408;2022-09-24T10:05:20;7.77;;;6.97;;
2105;SDS011;1059;52.548;13.408;2022-09-24T10:07:52;8.73;;;6.67;;
2105;SDS011;1059;52.548;13.408;2022-09-24T10:10:20;6.90;;;6.30;;
2105;SDS011;1059;52.548;13.408;2022-09-24T10:12:49;7.10;;;6.50;;
2105;SDS011;1059;52.548;13.408;2022-09-24T10:15:20;9.80;;;6.60;;
2105;SDS011;1059;52.548;13.408;2022-09-24T10:17:57;7.43;;;6.60;;
2105;SDS011;1059;52.548;13.408;2022-09-24T10:20:44;8.17;;;7.10;;
2105;SDS011;1059;52.548;13.408;2022-09-24T10:23:14;7.57;;;6.87;;
2105;SDS011;1059;52.548;13.408;2022-09-24T10:25:48;7.03;;;6.37;;
2105;SDS011;1059;52.548;13.408;2022-09-24T10:28:18;7.00;;;6.30;;
2105;SDS011;1059;52.548;13.408;2022-09-24T10:31:04;10.10;;;7.13;;
2105;SDS011;1059;52.548;13.408;2022-09-24T10:33:36;7.20;;;6.60;;
2105;SDS011;1059;52.548;13.408;2022-09-24T10:36:04;7.13;;;6.43;;
2105;SDS011;1059;52.548;13.408;2022-09-24T10:38:33;6.43;;;5.93;;
2105;SDS011;1059;52.548;13.408;2022-09-24T10:41:00;7.80;;;7.00;;
2105;SDS011;1059;52.548;13.408;2022-09-24T10:43:28;7.13;;;6.43;;
2105;SDS011;1059;52.548;13.408;2022-09-24T10:46:15;8.07;;;7.33;;
2105;SDS011;1059;52.548;13.408;2022-09-24T10:49:06;7.27;;;6.57;;
2105;SDS011;1059;52.548;13.408;2022-09-24T10:51:45;7.10;;;6.40;;
2105;SDS011;1059;52.548;13.408;2022-09-24T10:54:26;8.10;;;7.30;;
2105;SDS011;1059;52.548;13.408;2022-09-24T10:57:09;8.60;;;6.30;;
2105;SDS011;1059;52.548;13.408;2022-09-24T10:59:47;7.60;;;6.90;;
2105;SDS011;1059;52.548;13.408;2022-09-24T11:02:26;6.57;;;6.07;;
2105;SDS011;1059;52.548;13.408;2022-09-24T11:05:06;9.37;;;6.80;;
2105;SDS011;1059;52.548;13.408;2022-09-24T11:10:38;8.07;;;6.70;;
2105;SDS011;1059;52.548;13.408;2022-09-24T11:13:20;6.60;;;6.00;;
2105;SDS011;1059;52.548;13.408;2022-09-24T11:16:14;9.10;;;6.93;;
2105;SDS011;1059;52.548;13.408;2022-09-24T11:18:55;7.20;;;6.50;;
2105;SDS011;1059;52.548;13.408;2022-09-24T11:21:33;7.43;;;6.63;;
2105;SDS011;1059;52.548;13.408;2022-09-24T11:24:30;7.30;;;6.50;;
2105;SDS011;1059;52.548;13.408;2022-09-24T11:27:14;7.50;;;6.77;;
2105;SDS011;1059;52.548;13.408;2022-09-24T11:29:57;6.50;;;5.90;;
2105;SDS011;1059;52.548;13.408;2022-09-24T11:32:37;5.87;;;5.37;;
2105;SDS011;1059;52.548;13.408;2022-09-24T11:35:23;6.10;;;5.60;;
2105;SDS011;1059;52.548;13.408;2022-09-24T11:38:00;6.97;;;5.73;;
2105;SDS011;1059;52.548;13.408;2022-09-24T11:40:39;5.70;;;5.20;;
2105;SDS011;1059;52.548;13.408;2022-09-24T11:43:19;5.83;;;5.17;;
2105;SDS011;1059;52.548;13.408;2022-09-24T11:46:09;5.40;;;5.00;;
2105;SDS011;1059;52.548;13.408;2022-09-24T11:48:50;6.10;;;5.47;;
2105;SDS011;1059;52.548;13.408;2022-09-24T11:51:32;7.03;;;5.40;;
2105;SDS011;1059;52.548;13.408;2022-09-24T11:54:11;8.13;;;5.60;;
2105;SDS011;1059;52.548;13.408;2022-09-24T11:56:46;5.50;;;5.00;;
2105;SDS011;1059;52.548;13.408;2022-09-24T11:59:21;9.40;;;5.10;;
2105;SDS011;1059;52.548;13.408;2022-09-24T12:01:57;5.33;;;4.90;;
2105;SDS011;1059;52.548;13.408;2022-09-24T12:04:34;6.40;;;5.80;;
2105;SDS011;1059;52.548;13.408;2022-09-24T12:07:12;5.13;;;4.67;;
2105;SDS011;1059;52.548;13.408;2022-09-24T12:09:42;5.43;;;4.90;;
2105;SDS011;1059;52.548;13.408;2022-09-24T12:12:14;5.70;;;5.10;;
2105;SDS011;1059;52.548;13.408;2022-09-24T12:14:44;6.97;;;5.23;;
2105;SDS011;1059;52.548;13.408;2022-09-24T12:17:17;5.27;;;4.83;;
2105;SDS011;1059;52.548;13.408;2022-09-24T12:19:51;6.40;;;5.70;;
2105;SDS011;1059;52.548;13.408;2022-09-24T12:22:22;8.73;;;5.10;;
2105;SDS011;1059;52.548;13.408;2022-09-24T12:24:51;7.20;;;5.93;;
2105;SDS011;1059;52.548;13.408;2022-09-24T12:27:24;7.03;;;6.33;;
2105;SDS011;1059;52.548;13.408;2022-09-24T12:29:57;6.03;;;5.33;;
2105;SDS011;1059;52.548;13.408;2022-09-24T12:32:49;6.70;;;6.10;;
2105;SDS011;1059;52.548;13.408;2022-09-24T12:35:24;5.97;;;5.47;;
2105;SDS011;1059;52.548;13.408;2022-09-24T12:37:59;6.63;;;6.03;;
2105;SDS011;1059;52.548;13.408;2022-09-24T12:40:34;6.43;;;5.83;;
2105;SDS011;1059;52.548;13.408;2022-09-24T12:43:24;6.80;;;6.20;;
2105;SDS011;1059;52.548;13.408;2022-09-24T12:45:55;5.93;;;5.43;;
2105;SDS011;1059;52.548;13.408;2022-09-24T12:48:26;9.73;;;6.80;;
2105;SDS011;1059;52.548;13.408;2022-09-24T12:50:58;6.90;;;6.30;;
2105;SDS011;1059;52.548;13.408;2022-09-24T12:53:28;6.27;;;5.70;;
2105;SDS011;1059;52.548;13.408;2022-09-24T12:56:00;6.50;;;5.97;;
2105;SDS011;1059;52.548;13.408;2022-09-24T12:58:35;6.33;;;5.73;;
2105;SDS011;1059;52.548;13.408;2022-09-24T13:01:05;6.17;;;5.47;;
2105;SDS011;1059;52.548;13.408;2022-09-24T13:03:34;7.00;;;5.63;;
2105;SDS011;1059;52.548;13.408;2022-09-24T13:06:18;5.63;;;5.23;;
2105;SDS011;1059;52.548;13.408;2022-09-24T13:08:48;8.57;;;5.40;;
2105;SDS011;1059;52.548;13.408;2022-09-24T13:11:25;5.23;;;4.83;;
2105;SDS011;1059;52.548;13.408;2022-09-24T13:16:46;7.93;;;6.07;;
2105;SDS011;1059;52.548;13.408;2022-09-24T13:19:27;6.27;;;5.63;;
2105;SDS011;1059;52.548;13.408;2022-09-24T13:22:01;5.90;;;5.33;;
2105;SDS011;1059;52.548;13.408;2022-09-24T13:24:32;5.77;;;5.17;;
2105;SDS011;1059;52.548;13.408;2022-09-24T13:27:21;7.47;;;6.30;;
2105;SDS011;1059;52.548;13.408;2022-09-24T13:29:59;5.63;;;5.13;;
2105;SDS011;1059;52.548;13.408;2022-09-24T13:32:31;5.77;;;4.90;;
2105;SDS011;1059;52.548;13.408;2022-09-24T13:35:01;5.60;;;5.20;;
2105;SDS011;1059;52.548;13.408;2022-09-24T13:37:33;6.20;;;5.60;;
2105;SDS011;1059;52.548;13.408;2022-09-24T13:40:05;7.00;;;5.00;;
2105;SDS011;1059;52.548;13.408;2022-09-24T13:42:42;5.43;;;4.97;;
2105;SDS011;1059;52.548;13.408;2022-09-24T13:45:14;10.43;;;5.50;;
2105;SDS011;1059;52.548;13.408;2022-09-24T13:47:43;5.57;;;5.07;;
2105;SDS011;1059;52.548;13.408;2022-09-24T13:50:14;6.10;;;5.50;;
2105;SDS011;1059;52.548;13.408;2022-09-24T13:52:44;5.87;;;5.27;;
2105;SDS011;1059;52.548;13.408;2022-09-24T13:55:19;6.97;;;6.27;;
2105;SDS011;1059;52.548;13.408;2022-09-24T13:57:49;6.73;;;6.00;;
2105;SDS011;1059;52.548;13.408;2022-09-24T14:00:18;7.50;;;5.80;;
2105;SDS011;1059;52.548;13.408;2022-09-24T14:02:53;7.37;;;6.27;;
2105;SDS011;1059;52.548;13.408;2022-09-24T14:05:23;6.60;;;4.80;;
2105;SDS011;1059;52.548;13.408;2022-09-24T14:07:56;8.50;;;5.83;;
2105;SDS011;1059;52.548;13.408;2022-09-24T14:10:28;5.90;;;5.30;;
2105;SDS011;1059;52.548;13.408;2022-09-24T14:12:59;7.10;;;6.40;;
2105;SDS011;1059;52.548;13.408;2022-09-24T14:15:48;6.33;;;5.40;;
2105;SDS011;1059;52.548;13.408;2022-09-24T14:18:16;6.07;;;5.07;;
2105;SDS011;1059;52.548;13.408;2022-09-24T14:20:43;5.30;;;4.80;;
2105;SDS011;1059;52.548;13.408;2022-09-24T14:23:16;6.07;;;5.57;;
2105;SDS011;1059;52.548;13.408;2022-09-24T14:25:47;5.53;;;4.80;;
2105;SDS011;1059;52.548;13.408;2022-09-24T14:28:16;6.03;;;5.53;;
2105;SDS011;1059;52.548;13.408;2022-09-24T14:30:46;6.57;;;5.00;;
2105;SDS011;1059;52.548;13.408;2022-09-24T14:33:15;5.43;;;4.93;;
2105;SDS011;1059;52.548;13.408;2022-09-24T14:35:45;5.47;;;4.97;;
2105;SDS011;1059;52.548;13.408;2022-09-24T14:38:17;5.60;;;5.07;;
2105;SDS011;1059;52.548;13.408;2022-09-24T14:40:48;6.83;;;6.13;;
2105;SDS011;1059;52.548;13.408;2022-09-24T14:43:19;6.10;;;5.60;;
2105;SDS011;1059;52.548;13.408;2022-09-24T14:45:58;7.67;;;6.97;;
2105;SDS011;1059;52.548;13.408;2022-09-24T14:48:28;8.07;;;5.30;;
2105;SDS011;1059;52.548;13.408;2022-09-24T14:50:56;5.50;;;5.00;;
2105;SDS011;1059;52.548;13.408;2022-09-24T14:53:25;4.93;;;4.53;;
2105;SDS011;1059;52.548;13.408;2022-09-24T14:55:54;6.70;;;6.10;;
2105;SDS011;1059;52.548;13.408;2022-09-24T14:58:22;5.60;;;5.10;;
2105;SDS011;1059;52.548;13.408;2022-09-24T15:01:01;5.93;;;5.43;;
2105;SDS011;1059;52.548;13.408;2022-09-24T15:03:35;5.20;;;4.70;;
2105;SDS011;1059;52.548;13.408;2022-09-24T15:06:05;6.50;;;5.73;;
2105;SDS011;1059;52.548;13.408;2022-09-24T15:08:43;6.63;;;6.03;;
2105;SDS011;1059;52.548;13.408;2022-09-24T15:11:16;7.83;;;5.80;;
2105;SDS011;1059;52.548;13.408;2022-09-24T15:13:43;7.67;;;6.03;;
2105;SDS011;1059;52.548;13.408;2022-09-24T15:16:17;6.43;;;5.87;;
2105;SDS011;1059;52.548;13.408;2022-09-24T15:18:50;6.10;;;5.40;;
2105;SDS011;1059;52.548;13.408;2022-09-24T15:21:24;6.20;;;5.60;;
2105;SDS011;1059;52.548;13.408;2022-09-24T15:23:56;6.77;;;6.17;;
2105;SDS011;1059;52.548;13.408;2022-09-24T15:26:23;7.60;;;6.90;;
2105;SDS011;1059;52.548;13.408;2022-09-24T15:28:58;6.57;;;5.97;;